Adana Incirlik Air Force Base, Türkiye

Saat: 10:31 AM EEST Tarih: 17 Eylül 2014 (GMT +0300)
Incirlik Air Base | Change Station
CLOSE
Current Station
Hava Meydanı
Location: Adana Incirlik AFB,
Yükseklik: 217 ft
Nearby Weather Stations

Elev 217 ft 37.00 °N, 35.43 °E | Updated 11 minutes ago

Scattered Clouds
Az Bulutlu
82
Feels Like 84
N
4
Rüzgar Değişken Rüzgar from GGD

Bugün
High -- | Low -- F°
--% Chance of Precip.
Dün
High -- | Low -- F°
Precip. -- inç
6:21 AM 6:43 PM
Son Hilãl, 38% visible
Basınç 29.80 inç
Görüş Uzaklığı 6.2 mil
Bulutlar Az Bulutlu 3000 ft
Sıcaklık endeksi 84
Çiğ noktası 64
Nem oranı 54%
Yağış 0.00 inç
Kar Kalınlığı Not available.
5 out of 12
Pollen Not available.
Hava Kalitesi Not available.
Flu Activity Not available.
METAR LTAG 170720Z 16003KT 9999 SCT030 28/18 Q1009 NOSIG

More Conditions Fewer Conditions

Basınç 29.80 inç
Görüş Uzaklığı 6.2 mil
Bulutlar Az Bulutlu 3000 ft
Sıcaklık endeksi 84
Çiğ noktası 64
Nem oranı 54%
Yağış 0.00 inç
Kar Kalınlığı Not available.
5 out of 12
Pollen Not available.
Hava Kalitesi Not available.
Flu Activity Not available.
METAR LTAG 170720Z 16003KT 9999 SCT030 28/18 Q1009 NOSIG

More Conditions Fewer Conditions

10-Day Weather Forecast

Almanac

Gökbilim

Sep. 17, 2014 Rise Set
Gerçek Zaman 06:21 EEST 18:43 EEST
Günlük Tan 05:55 EEST 19:09 EEST
Deniz Tanı 05:25 EEST 19:39 EEST
Geceyarısı Yıldız Zamanı 04:54 EEST 20:10 EEST
Ay 00:10 EEST 14:31 EEST
Görünür Işığın Uzunluğu 13h 13m
Günün Uzunluğu
12h 21m
Tomorrow will be 2m 20s shorter.
Son Hilãl, 38% of the Moon is Illuminated
Bugün
Son Hilãl
Sep 24
New
Oct 1
İlk Hilãl
Oct 8
Dolunay
Oct 15
Son Hilãl

Yesterday's Extremes

Country Highs Country Lows

Community

WunderPhotos

Upload Photos

1,753,976 photos uploaded!

Nearby

Kar Kalınlığı

Not available.

Earthquake Activity

Şehir Distance Mag. Time & Date
No recent earthquake activity has been reported nearby.
Minimum magnitude displayed is 2.5.

Coastal Water Temperatures

Yer Sıcaklık
No Stations Reporting

Nearby Weather Stations